Au Sable Chasm, New York
Current Conditions -  °F | °C
As of 4:53 AM on Friday 19 Dec 2014 (Local Time) from KPBG Reporting Station
Overcast Overcast  
Wind Chill: 19°   Ceiling: 2000
Heat Index: 27°   Visibility: 10mi
Dew Point: 21°   Wind: 8mph
Humidity: 78%   Direction: 330°NNW
Pressure: 29.98"   Gusts: NA
Location:  44.5125°N, 73.5235°W
Report Text: KPBG 190953Z AUTO 33007KT 10SM OVC020 M03/M06 A2998 RMK AO2 SLP155 T10281061
Loading
Personal Weather Stations






























Interactive Weather Map New forecast layout! Learn more

10-Day Weather Forecast

Advertisements
Track Severe Weather on mobile